sensor_id;sensor_type;location;lat;lon;timestamp;P1;durP1;ratioP1;P2;durP2;ratioP2
24961;SDS011;12992;50.884;13.668;2022-12-11T00:00:14;30.25;;;13.80;;
24961;SDS011;12992;50.884;13.668;2022-12-11T00:02:40;24.65;;;12.77;;
24961;SDS011;12992;50.884;13.668;2022-12-11T00:05:05;28.20;;;13.82;;
24961;SDS011;12992;50.884;13.668;2022-12-11T00:07:31;25.88;;;13.20;;
24961;SDS011;12992;50.884;13.668;2022-12-11T00:09:56;29.90;;;14.20;;
24961;SDS011;12992;50.884;13.668;2022-12-11T00:12:22;24.77;;;13.15;;
24961;SDS011;12992;50.884;13.668;2022-12-11T00:14:47;27.30;;;13.88;;
24961;SDS011;12992;50.884;13.668;2022-12-11T00:17:12;24.63;;;13.63;;
24961;SDS011;12992;50.884;13.668;2022-12-11T00:19:38;27.52;;;13.70;;
24961;SDS011;12992;50.884;13.668;2022-12-11T00:22:03;28.63;;;14.48;;
24961;SDS011;12992;50.884;13.668;2022-12-11T00:24:28;28.75;;;14.48;;
24961;SDS011;12992;50.884;13.668;2022-12-11T00:26:54;27.58;;;14.60;;
24961;SDS011;12992;50.884;13.668;2022-12-11T00:29:19;27.38;;;14.02;;
24961;SDS011;12992;50.884;13.668;2022-12-11T00:31:45;28.83;;;14.57;;
24961;SDS011;12992;50.884;13.668;2022-12-11T00:34:10;26.98;;;14.43;;
24961;SDS011;12992;50.884;13.668;2022-12-11T00:36:38;29.15;;;14.23;;
24961;SDS011;12992;50.884;13.668;2022-12-11T00:39:04;31.70;;;14.23;;
24961;SDS011;12992;50.884;13.668;2022-12-11T00:41:30;32.22;;;14.38;;
24961;SDS011;12992;50.884;13.668;2022-12-11T00:43:55;27.25;;;13.80;;
24961;SDS011;12992;50.884;13.668;2022-12-11T00:46:21;27.48;;;13.90;;
24961;SDS011;12992;50.884;13.668;2022-12-11T00:48:46;29.30;;;14.55;;
24961;SDS011;12992;50.884;13.668;2022-12-11T00:51:14;28.88;;;15.05;;
24961;SDS011;12992;50.884;13.668;2022-12-11T00:53:40;30.83;;;14.98;;
24961;SDS011;12992;50.884;13.668;2022-12-11T00:56:12;26.25;;;13.65;;
24961;SDS011;12992;50.884;13.668;2022-12-11T00:58:43;29.27;;;14.05;;
24961;SDS011;12992;50.884;13.668;2022-12-11T01:01:10;29.92;;;14.45;;
24961;SDS011;12992;50.884;13.668;2022-12-11T01:03:37;27.85;;;13.57;;
24961;SDS011;12992;50.884;13.668;2022-12-11T01:06:03;26.70;;;14.13;;
24961;SDS011;12992;50.884;13.668;2022-12-11T01:08:29;24.73;;;13.35;;
24961;SDS011;12992;50.884;13.668;2022-12-11T01:11:05;28.33;;;14.10;;
24961;SDS011;12992;50.884;13.668;2022-12-11T01:13:33;26.05;;;13.73;;
24961;SDS011;12992;50.884;13.668;2022-12-11T01:15:58;28.55;;;13.85;;
24961;SDS011;12992;50.884;13.668;2022-12-11T01:18:24;28.38;;;14.68;;
24961;SDS011;12992;50.884;13.668;2022-12-11T01:20:50;28.98;;;14.73;;
24961;SDS011;12992;50.884;13.668;2022-12-11T01:23:15;26.60;;;14.15;;
24961;SDS011;12992;50.884;13.668;2022-12-11T01:25:41;26.30;;;13.75;;
24961;SDS011;12992;50.884;13.668;2022-12-11T01:28:07;27.40;;;14.30;;
24961;SDS011;12992;50.884;13.668;2022-12-11T01:30:34;29.40;;;13.80;;
24961;SDS011;12992;50.884;13.668;2022-12-11T01:33:00;27.58;;;13.48;;
24961;SDS011;12992;50.884;13.668;2022-12-11T01:35:26;26.13;;;14.07;;
24961;SDS011;12992;50.884;13.668;2022-12-11T01:37:52;27.85;;;14.18;;
24961;SDS011;12992;50.884;13.668;2022-12-11T01:40:18;24.25;;;12.80;;
24961;SDS011;12992;50.884;13.668;2022-12-11T01:42:44;27.15;;;14.07;;
24961;SDS011;12992;50.884;13.668;2022-12-11T01:48:00;29.83;;;14.73;;
24961;SDS011;12992;50.884;13.668;2022-12-11T01:50:31;26.00;;;13.52;;
24961;SDS011;12992;50.884;13.668;2022-12-11T01:53:00;28.92;;;15.23;;
24961;SDS011;12992;50.884;13.668;2022-12-11T01:55:29;26.27;;;13.35;;
24961;SDS011;12992;50.884;13.668;2022-12-11T01:57:56;27.65;;;13.80;;
24961;SDS011;12992;50.884;13.668;2022-12-11T02:00:22;26.42;;;13.75;;
24961;SDS011;12992;50.884;13.668;2022-12-11T02:02:48;27.13;;;13.82;;
24961;SDS011;12992;50.884;13.668;2022-12-11T02:05:13;25.50;;;13.45;;
24961;SDS011;12992;50.884;13.668;2022-12-11T02:07:41;26.50;;;14.40;;
24961;SDS011;12992;50.884;13.668;2022-12-11T02:10:10;27.23;;;13.77;;
24961;SDS011;12992;50.884;13.668;2022-12-11T02:12:41;29.60;;;14.43;;
24961;SDS011;12992;50.884;13.668;2022-12-11T02:15:24;31.25;;;14.45;;
24961;SDS011;12992;50.884;13.668;2022-12-11T02:23:24;33.65;;;15.88;;
24961;SDS011;12992;50.884;13.668;2022-12-11T02:29:17;33.35;;;16.13;;
24961;SDS011;12992;50.884;13.668;2022-12-11T02:31:49;33.47;;;16.30;;
24961;SDS011;12992;50.884;13.668;2022-12-11T02:34:22;37.58;;;17.63;;
24961;SDS011;12992;50.884;13.668;2022-12-11T02:36:56;35.35;;;17.25;;
24961;SDS011;12992;50.884;13.668;2022-12-11T02:39:26;25.40;;;12.03;;
24961;SDS011;12992;50.884;13.668;2022-12-11T02:41:52;39.80;;;19.20;;
24961;SDS011;12992;50.884;13.668;2022-12-11T02:44:26;36.65;;;17.88;;
24961;SDS011;12992;50.884;13.668;2022-12-11T02:46:54;41.78;;;18.80;;
24961;SDS011;12992;50.884;13.668;2022-12-11T02:49:22;33.13;;;17.45;;
24961;SDS011;12992;50.884;13.668;2022-12-11T02:51:48;42.65;;;19.35;;
24961;SDS011;12992;50.884;13.668;2022-12-11T02:54:20;35.42;;;18.10;;
24961;SDS011;12992;50.884;13.668;2022-12-11T02:56:53;34.97;;;17.23;;
24961;SDS011;12992;50.884;13.668;2022-12-11T02:59:27;36.78;;;16.52;;
24961;SDS011;12992;50.884;13.668;2022-12-11T03:01:58;30.90;;;15.80;;
24961;SDS011;12992;50.884;13.668;2022-12-11T03:04:24;35.42;;;16.10;;
24961;SDS011;12992;50.884;13.668;2022-12-11T03:06:50;33.28;;;15.60;;
24961;SDS011;12992;50.884;13.668;2022-12-11T03:09:20;33.92;;;16.65;;
24961;SDS011;12992;50.884;13.668;2022-12-11T03:11:45;33.28;;;16.42;;
24961;SDS011;12992;50.884;13.668;2022-12-11T03:14:10;32.45;;;16.63;;
24961;SDS011;12992;50.884;13.668;2022-12-11T03:16:37;34.90;;;16.50;;
24961;SDS011;12992;50.884;13.668;2022-12-11T03:21:52;33.78;;;15.98;;
24961;SDS011;12992;50.884;13.668;2022-12-11T03:24:38;33.20;;;16.48;;
24961;SDS011;12992;50.884;13.668;2022-12-11T03:27:32;35.67;;;16.63;;
24961;SDS011;12992;50.884;13.668;2022-12-11T03:30:07;31.75;;;15.88;;
24961;SDS011;12992;50.884;13.668;2022-12-11T03:32:41;31.95;;;15.75;;
24961;SDS011;12992;50.884;13.668;2022-12-11T03:35:16;30.10;;;14.70;;
24961;SDS011;12992;50.884;13.668;2022-12-11T03:37:47;36.20;;;16.00;;
24961;SDS011;12992;50.884;13.668;2022-12-11T03:40:16;28.27;;;14.18;;
24961;SDS011;12992;50.884;13.668;2022-12-11T03:42:45;33.10;;;15.10;;
24961;SDS011;12992;50.884;13.668;2022-12-11T03:45:13;32.50;;;14.75;;
24961;SDS011;12992;50.884;13.668;2022-12-11T03:47:40;31.98;;;15.25;;
24961;SDS011;12992;50.884;13.668;2022-12-11T03:50:07;34.45;;;16.23;;
24961;SDS011;12992;50.884;13.668;2022-12-11T03:52:34;32.25;;;14.90;;
24961;SDS011;12992;50.884;13.668;2022-12-11T03:55:04;30.38;;;15.13;;
24961;SDS011;12992;50.884;13.668;2022-12-11T03:57:31;30.95;;;14.80;;
24961;SDS011;12992;50.884;13.668;2022-12-11T04:00:00;29.10;;;15.50;;
24961;SDS011;12992;50.884;13.668;2022-12-11T04:02:25;30.55;;;15.05;;
24961;SDS011;12992;50.884;13.668;2022-12-11T04:04:50;31.00;;;15.40;;
24961;SDS011;12992;50.884;13.668;2022-12-11T04:07:16;35.03;;;15.35;;
24961;SDS011;12992;50.884;13.668;2022-12-11T04:09:41;35.17;;;16.02;;
24961;SDS011;12992;50.884;13.668;2022-12-11T04:12:07;32.22;;;15.82;;
24961;SDS011;12992;50.884;13.668;2022-12-11T04:14:32;31.40;;;14.45;;
24961;SDS011;12992;50.884;13.668;2022-12-11T04:17:16;29.05;;;14.75;;
24961;SDS011;12992;50.884;13.668;2022-12-11T04:20:02;27.95;;;13.98;;
24961;SDS011;12992;50.884;13.668;2022-12-11T04:22:49;28.25;;;13.43;;
24961;SDS011;12992;50.884;13.668;2022-12-11T04:25:33;30.52;;;14.02;;
24961;SDS011;12992;50.884;13.668;2022-12-11T04:27:59;29.55;;;13.73;;
24961;SDS011;12992;50.884;13.668;2022-12-11T04:30:24;25.98;;;13.07;;
24961;SDS011;12992;50.884;13.668;2022-12-11T04:32:51;27.20;;;13.30;;
24961;SDS011;12992;50.884;13.668;2022-12-11T04:35:17;32.65;;;14.55;;
24961;SDS011;12992;50.884;13.668;2022-12-11T04:37:43;29.75;;;14.25;;
24961;SDS011;12992;50.884;13.668;2022-12-11T04:40:10;32.08;;;14.88;;
24961;SDS011;12992;50.884;13.668;2022-12-11T04:42:37;32.53;;;15.05;;
24961;SDS011;12992;50.884;13.668;2022-12-11T04:45:02;30.77;;;14.48;;
24961;SDS011;12992;50.884;13.668;2022-12-11T04:47:29;28.63;;;13.60;;
24961;SDS011;12992;50.884;13.668;2022-12-11T04:49:54;29.88;;;13.85;;
24961;SDS011;12992;50.884;13.668;2022-12-11T04:52:20;31.25;;;13.82;;
24961;SDS011;12992;50.884;13.668;2022-12-11T04:54:46;26.33;;;13.52;;
24961;SDS011;12992;50.884;13.668;2022-12-11T04:57:11;30.17;;;14.27;;
24961;SDS011;12992;50.884;13.668;2022-12-11T04:59:36;28.00;;;13.98;;
24961;SDS011;12992;50.884;13.668;2022-12-11T05:02:02;32.15;;;14.38;;
24961;SDS011;12992;50.884;13.668;2022-12-11T05:04:32;29.55;;;14.60;;
24961;SDS011;12992;50.884;13.668;2022-12-11T05:06:58;25.33;;;12.43;;
24961;SDS011;12992;50.884;13.668;2022-12-11T05:09:24;26.95;;;12.98;;
24961;SDS011;12992;50.884;13.668;2022-12-11T05:11:50;26.80;;;13.55;;
24961;SDS011;12992;50.884;13.668;2022-12-11T05:14:16;25.27;;;13.02;;
24961;SDS011;12992;50.884;13.668;2022-12-11T05:16:41;33.30;;;14.15;;
24961;SDS011;12992;50.884;13.668;2022-12-11T05:19:07;29.33;;;14.40;;
24961;SDS011;12992;50.884;13.668;2022-12-11T05:21:32;29.63;;;14.10;;
24961;SDS011;12992;50.884;13.668;2022-12-11T05:23:57;30.33;;;14.13;;
24961;SDS011;12992;50.884;13.668;2022-12-11T05:26:23;26.70;;;13.07;;
24961;SDS011;12992;50.884;13.668;2022-12-11T05:28:51;31.13;;;14.43;;
24961;SDS011;12992;50.884;13.668;2022-12-11T05:31:22;28.17;;;13.07;;
24961;SDS011;12992;50.884;13.668;2022-12-11T05:33:49;27.67;;;13.05;;
24961;SDS011;12992;50.884;13.668;2022-12-11T05:36:16;27.15;;;12.10;;
24961;SDS011;12992;50.884;13.668;2022-12-11T05:38:50;28.42;;;13.05;;
24961;SDS011;12992;50.884;13.668;2022-12-11T05:41:17;26.00;;;12.45;;
24961;SDS011;12992;50.884;13.668;2022-12-11T05:43:44;24.63;;;12.23;;
24961;SDS011;12992;50.884;13.668;2022-12-11T05:46:20;24.98;;;12.80;;
24961;SDS011;12992;50.884;13.668;2022-12-11T05:48:54;23.65;;;11.20;;
24961;SDS011;12992;50.884;13.668;2022-12-11T05:51:20;24.60;;;11.45;;
24961;SDS011;12992;50.884;13.668;2022-12-11T05:53:46;25.48;;;11.80;;
24961;SDS011;12992;50.884;13.668;2022-12-11T05:56:17;27.63;;;11.40;;
24961;SDS011;12992;50.884;13.668;2022-12-11T05:58:44;29.35;;;12.13;;
24961;SDS011;12992;50.884;13.668;2022-12-11T06:01:12;24.60;;;12.43;;
24961;SDS011;12992;50.884;13.668;2022-12-11T06:03:39;29.88;;;12.65;;
24961;SDS011;12992;50.884;13.668;2022-12-11T06:06:05;25.73;;;12.07;;
24961;SDS011;12992;50.884;13.668;2022-12-11T06:08:31;27.92;;;12.20;;
24961;SDS011;12992;50.884;13.668;2022-12-11T06:10:58;30.45;;;13.35;;
24961;SDS011;12992;50.884;13.668;2022-12-11T06:13:24;32.53;;;13.15;;
24961;SDS011;12992;50.884;13.668;2022-12-11T06:15:50;28.75;;;12.95;;
24961;SDS011;12992;50.884;13.668;2022-12-11T06:18:16;26.00;;;11.82;;
24961;SDS011;12992;50.884;13.668;2022-12-11T06:20:41;27.88;;;12.93;;
24961;SDS011;12992;50.884;13.668;2022-12-11T06:23:07;30.67;;;13.80;;
24961;SDS011;12992;50.884;13.668;2022-12-11T06:25:32;31.73;;;13.40;;
24961;SDS011;12992;50.884;13.668;2022-12-11T06:27:57;27.15;;;12.80;;
24961;SDS011;12992;50.884;13.668;2022-12-11T06:30:23;26.23;;;11.82;;
24961;SDS011;12992;50.884;13.668;2022-12-11T06:32:48;23.65;;;11.95;;
24961;SDS011;12992;50.884;13.668;2022-12-11T06:35:14;23.65;;;11.50;;
24961;SDS011;12992;50.884;13.668;2022-12-11T06:37:39;30.45;;;13.65;;
24961;SDS011;12992;50.884;13.668;2022-12-11T06:40:05;28.40;;;13.80;;
24961;SDS011;12992;50.884;13.668;2022-12-11T06:42:32;24.98;;;12.73;;
24961;SDS011;12992;50.884;13.668;2022-12-11T06:44:58;25.75;;;11.57;;
24961;SDS011;12992;50.884;13.668;2022-12-11T06:47:30;24.77;;;12.52;;
24961;SDS011;12992;50.884;13.668;2022-12-11T06:49:56;24.08;;;11.73;;
24961;SDS011;12992;50.884;13.668;2022-12-11T06:52:22;23.58;;;11.13;;
24961;SDS011;12992;50.884;13.668;2022-12-11T06:54:49;25.17;;;11.65;;
24961;SDS011;12992;50.884;13.668;2022-12-11T06:57:15;24.40;;;11.48;;
24961;SDS011;12992;50.884;13.668;2022-12-11T06:59:41;23.02;;;12.15;;
24961;SDS011;12992;50.884;13.668;2022-12-11T07:02:08;27.80;;;11.43;;
24961;SDS011;12992;50.884;13.668;2022-12-11T07:04:37;23.00;;;10.85;;
24961;SDS011;12992;50.884;13.668;2022-12-11T07:07:02;22.38;;;10.57;;
24961;SDS011;12992;50.884;13.668;2022-12-11T07:09:27;24.13;;;11.25;;
24961;SDS011;12992;50.884;13.668;2022-12-11T07:11:53;24.52;;;11.52;;
24961;SDS011;12992;50.884;13.668;2022-12-11T07:14:18;24.80;;;11.40;;
24961;SDS011;12992;50.884;13.668;2022-12-11T07:16:44;24.55;;;12.18;;
24961;SDS011;12992;50.884;13.668;2022-12-11T07:19:09;25.63;;;10.68;;
24961;SDS011;12992;50.884;13.668;2022-12-11T07:21:35;23.98;;;11.27;;
24961;SDS011;12992;50.884;13.668;2022-12-11T07:24:01;21.45;;;11.10;;
24961;SDS011;12992;50.884;13.668;2022-12-11T07:26:26;24.98;;;11.23;;
24961;SDS011;12992;50.884;13.668;2022-12-11T07:28:55;24.60;;;11.27;;
24961;SDS011;12992;50.884;13.668;2022-12-11T07:31:22;25.23;;;10.70;;
24961;SDS011;12992;50.884;13.668;2022-12-11T07:33:59;23.13;;;11.35;;
24961;SDS011;12992;50.884;13.668;2022-12-11T07:36:27;27.75;;;12.70;;
24961;SDS011;12992;50.884;13.668;2022-12-11T07:38:53;27.98;;;12.43;;
24961;SDS011;12992;50.884;13.668;2022-12-11T07:41:19;33.38;;;13.25;;
24961;SDS011;12992;50.884;13.668;2022-12-11T07:43:51;26.50;;;12.20;;
24961;SDS011;12992;50.884;13.668;2022-12-11T07:46:18;25.35;;;12.05;;
24961;SDS011;12992;50.884;13.668;2022-12-11T07:48:46;24.17;;;11.88;;
24961;SDS011;12992;50.884;13.668;2022-12-11T07:51:14;20.98;;;11.45;;
24961;SDS011;12992;50.884;13.668;2022-12-11T07:53:42;22.65;;;11.05;;
24961;SDS011;12992;50.884;13.668;2022-12-11T07:56:09;24.30;;;11.63;;
24961;SDS011;12992;50.884;13.668;2022-12-11T07:58:35;25.70;;;11.68;;
24961;SDS011;12992;50.884;13.668;2022-12-11T08:01:00;21.75;;;10.95;;
24961;SDS011;12992;50.884;13.668;2022-12-11T08:03:26;19.17;;;10.63;;
24961;SDS011;12992;50.884;13.668;2022-12-11T08:05:51;20.73;;;10.38;;
24961;SDS011;12992;50.884;13.668;2022-12-11T08:08:17;20.65;;;10.98;;
24961;SDS011;12992;50.884;13.668;2022-12-11T08:10:43;20.85;;;10.02;;
24961;SDS011;12992;50.884;13.668;2022-12-11T08:13:09;19.25;;;10.10;;
24961;SDS011;12992;50.884;13.668;2022-12-11T08:15:35;22.45;;;10.75;;
24961;SDS011;12992;50.884;13.668;2022-12-11T08:18:00;21.90;;;10.45;;
24961;SDS011;12992;50.884;13.668;2022-12-11T08:20:26;20.90;;;10.40;;
24961;SDS011;12992;50.884;13.668;2022-12-11T08:22:51;18.83;;;10.10;;
24961;SDS011;12992;50.884;13.668;2022-12-11T08:25:16;22.10;;;10.55;;
24961;SDS011;12992;50.884;13.668;2022-12-11T08:27:42;24.00;;;10.02;;
24961;SDS011;12992;50.884;13.668;2022-12-11T08:30:07;19.80;;;10.38;;
24961;SDS011;12992;50.884;13.668;2022-12-11T08:32:34;21.70;;;9.80;;
24961;SDS011;12992;50.884;13.668;2022-12-11T08:34:59;20.98;;;10.18;;
24961;SDS011;12992;50.884;13.668;2022-12-11T08:37:25;17.98;;;9.65;;
24961;SDS011;12992;50.884;13.668;2022-12-11T08:39:50;18.83;;;10.07;;
24961;SDS011;12992;50.884;13.668;2022-12-11T08:42:15;19.40;;;9.40;;
24961;SDS011;12992;50.884;13.668;2022-12-11T08:44:41;17.92;;;9.13;;
24961;SDS011;12992;50.884;13.668;2022-12-11T08:47:06;15.95;;;9.13;;
24961;SDS011;12992;50.884;13.668;2022-12-11T08:49:34;18.73;;;9.48;;
24961;SDS011;12992;50.884;13.668;2022-12-11T08:51:59;21.33;;;10.13;;
24961;SDS011;12992;50.884;13.668;2022-12-11T08:54:25;18.58;;;9.57;;
24961;SDS011;12992;50.884;13.668;2022-12-11T08:56:50;20.30;;;9.68;;
24961;SDS011;12992;50.884;13.668;2022-12-11T08:59:16;19.55;;;9.82;;
24961;SDS011;12992;50.884;13.668;2022-12-11T09:01:42;20.40;;;9.85;;
24961;SDS011;12992;50.884;13.668;2022-12-11T09:04:07;17.10;;;9.05;;
24961;SDS011;12992;50.884;13.668;2022-12-11T09:06:33;17.83;;;9.18;;
24961;SDS011;12992;50.884;13.668;2022-12-11T09:08:59;18.30;;;9.40;;
24961;SDS011;12992;50.884;13.668;2022-12-11T09:11:26;19.15;;;9.63;;
24961;SDS011;12992;50.884;13.668;2022-12-11T09:13:53;16.98;;;8.68;;
24961;SDS011;12992;50.884;13.668;2022-12-11T09:16:20;18.00;;;8.13;;
24961;SDS011;12992;50.884;13.668;2022-12-11T09:18:48;17.83;;;8.48;;
24961;SDS011;12992;50.884;13.668;2022-12-11T09:21:16;13.68;;;6.65;;
24961;SDS011;12992;50.884;13.668;2022-12-11T09:23:43;18.02;;;8.93;;
24961;SDS011;12992;50.884;13.668;2022-12-11T09:26:09;14.65;;;8.07;;
24961;SDS011;12992;50.884;13.668;2022-12-11T09:28:37;15.75;;;7.57;;
24961;SDS011;12992;50.884;13.668;2022-12-11T09:33:39;15.15;;;7.88;;
24961;SDS011;12992;50.884;13.668;2022-12-11T09:36:04;13.75;;;7.47;;
24961;SDS011;12992;50.884;13.668;2022-12-11T09:38:30;16.20;;;8.30;;
24961;SDS011;12992;50.884;13.668;2022-12-11T09:40:56;18.25;;;8.68;;
24961;SDS011;12992;50.884;13.668;2022-12-11T09:46:02;17.30;;;8.80;;
24961;SDS011;12992;50.884;13.668;2022-12-11T09:48:31;15.93;;;8.00;;
24961;SDS011;12992;50.884;13.668;2022-12-11T09:50:58;15.90;;;7.80;;
24961;SDS011;12992;50.884;13.668;2022-12-11T09:53:34;15.70;;;8.30;;
24961;SDS011;12992;50.884;13.668;2022-12-11T10:01:13;13.88;;;7.72;;
24961;SDS011;12992;50.884;13.668;2022-12-11T10:06:37;19.13;;;8.98;;
24961;SDS011;12992;50.884;13.668;2022-12-11T10:11:55;16.08;;;8.27;;
24961;SDS011;12992;50.884;13.668;2022-12-11T10:17:19;16.88;;;8.88;;
24961;SDS011;12992;50.884;13.668;2022-12-11T10:19:49;17.02;;;8.68;;
24961;SDS011;12992;50.884;13.668;2022-12-11T10:22:22;14.73;;;9.30;;
24961;SDS011;12992;50.884;13.668;2022-12-11T10:24:54;18.88;;;8.85;;
24961;SDS011;12992;50.884;13.668;2022-12-11T10:29:57;16.77;;;9.05;;
24961;SDS011;12992;50.884;13.668;2022-12-11T10:32:50;18.55;;;9.60;;
24961;SDS011;12992;50.884;13.668;2022-12-11T10:40:56;18.85;;;9.82;;
24961;SDS011;12992;50.884;13.668;2022-12-11T10:43:31;21.25;;;10.18;;
24961;SDS011;12992;50.884;13.668;2022-12-11T10:46:02;19.48;;;10.32;;
24961;SDS011;12992;50.884;13.668;2022-12-11T10:48:28;18.00;;;9.50;;
24961;SDS011;12992;50.884;13.668;2022-12-11T10:50:55;15.98;;;8.00;;
24961;SDS011;12992;50.884;13.668;2022-12-11T10:53:31;16.45;;;8.48;;
24961;SDS011;12992;50.884;13.668;2022-12-11T10:55:58;14.40;;;8.07;;
24961;SDS011;12992;50.884;13.668;2022-12-11T10:58:25;16.45;;;7.97;;
24961;SDS011;12992;50.884;13.668;2022-12-11T11:01:04;17.10;;;7.78;;
24961;SDS011;12992;50.884;13.668;2022-12-11T11:03:32;16.52;;;8.13;;
24961;SDS011;12992;50.884;13.668;2022-12-11T11:08:27;16.48;;;8.88;;
24961;SDS011;12992;50.884;13.668;2022-12-11T11:11:02;16.85;;;8.23;;
24961;SDS011;12992;50.884;13.668;2022-12-11T11:13:28;16.90;;;7.70;;
24961;SDS011;12992;50.884;13.668;2022-12-11T11:16:03;15.50;;;7.60;;
24961;SDS011;12992;50.884;13.668;2022-12-11T11:18:30;15.73;;;8.07;;
24961;SDS011;12992;50.884;13.668;2022-12-11T11:20:57;17.98;;;8.82;;
24961;SDS011;12992;50.884;13.668;2022-12-11T11:23:24;16.15;;;8.27;;
24961;SDS011;12992;50.884;13.668;2022-12-11T11:25:52;17.00;;;8.95;;
24961;SDS011;12992;50.884;13.668;2022-12-11T11:28:21;15.35;;;8.50;;
24961;SDS011;12992;50.884;13.668;2022-12-11T11:31:03;12.70;;;7.82;;
24961;SDS011;12992;50.884;13.668;2022-12-11T11:33:33;15.75;;;7.88;;
24961;SDS011;12992;50.884;13.668;2022-12-11T11:36:01;16.85;;;8.25;;
24961;SDS011;12992;50.884;13.668;2022-12-11T11:38:35;16.45;;;8.27;;
24961;SDS011;12992;50.884;13.668;2022-12-11T11:41:16;15.20;;;8.10;;
24961;SDS011;12992;50.884;13.668;2022-12-11T11:46:22;15.73;;;7.88;;
24961;SDS011;12992;50.884;13.668;2022-12-11T11:48:59;16.48;;;7.97;;
24961;SDS011;12992;50.884;13.668;2022-12-11T11:51:37;17.50;;;7.70;;
24961;SDS011;12992;50.884;13.668;2022-12-11T11:56:40;16.40;;;8.95;;
24961;SDS011;12992;50.884;13.668;2022-12-11T11:59:18;13.88;;;7.28;;
24961;SDS011;12992;50.884;13.668;2022-12-11T12:01:45;14.82;;;7.47;;
24961;SDS011;12992;50.884;13.668;2022-12-11T12:04:11;13.60;;;7.90;;
24961;SDS011;12992;50.884;13.668;2022-12-11T12:17:40;13.80;;;6.57;;
24961;SDS011;12992;50.884;13.668;2022-12-11T12:20:15;17.65;;;7.30;;
24961;SDS011;12992;50.884;13.668;2022-12-11T12:23:08;10.50;;;6.38;;
24961;SDS011;12992;50.884;13.668;2022-12-11T12:28:32;13.77;;;6.88;;
24961;SDS011;12992;50.884;13.668;2022-12-11T12:34:09;12.95;;;6.82;;
24961;SDS011;12992;50.884;13.668;2022-12-11T12:48:35;14.38;;;7.47;;
24961;SDS011;12992;50.884;13.668;2022-12-11T12:51:00;13.40;;;6.95;;
24961;SDS011;12992;50.884;13.668;2022-12-11T12:53:29;15.52;;;7.47;;
24961;SDS011;12992;50.884;13.668;2022-12-11T12:55:58;14.18;;;7.55;;
24961;SDS011;12992;50.884;13.668;2022-12-11T13:01:16;14.55;;;7.18;;
24961;SDS011;12992;50.884;13.668;2022-12-11T13:04:04;12.80;;;6.97;;
24961;SDS011;12992;50.884;13.668;2022-12-11T13:06:35;15.82;;;8.23;;
24961;SDS011;12992;50.884;13.668;2022-12-11T13:09:21;14.13;;;6.82;;
24961;SDS011;12992;50.884;13.668;2022-12-11T13:11:50;15.25;;;7.68;;
24961;SDS011;12992;50.884;13.668;2022-12-11T13:14:26;15.30;;;7.03;;
24961;SDS011;12992;50.884;13.668;2022-12-11T13:19:43;14.95;;;7.90;;
24961;SDS011;12992;50.884;13.668;2022-12-11T13:24:44;13.90;;;6.82;;
24961;SDS011;12992;50.884;13.668;2022-12-11T13:27:23;13.07;;;6.80;;
24961;SDS011;12992;50.884;13.668;2022-12-11T13:29:51;12.77;;;7.00;;
24961;SDS011;12992;50.884;13.668;2022-12-11T13:32:32;14.70;;;8.02;;
24961;SDS011;12992;50.884;13.668;2022-12-11T13:34:58;14.63;;;7.30;;
24961;SDS011;12992;50.884;13.668;2022-12-11T13:37:32;15.23;;;7.65;;
24961;SDS011;12992;50.884;13.668;2022-12-11T13:40:04;13.63;;;7.20;;
24961;SDS011;12992;50.884;13.668;2022-12-11T13:42:46;14.30;;;6.97;;
24961;SDS011;12992;50.884;13.668;2022-12-11T13:45:17;11.90;;;7.10;;
24961;SDS011;12992;50.884;13.668;2022-12-11T13:47:50;16.80;;;6.72;;
24961;SDS011;12992;50.884;13.668;2022-12-11T13:50:27;12.70;;;7.10;;
24961;SDS011;12992;50.884;13.668;2022-12-11T13:52:55;15.50;;;7.82;;
24961;SDS011;12992;50.884;13.668;2022-12-11T13:55:24;14.55;;;8.30;;
24961;SDS011;12992;50.884;13.668;2022-12-11T13:57:52;14.68;;;7.13;;
24961;SDS011;12992;50.884;13.668;2022-12-11T14:00:22;12.45;;;6.63;;
24961;SDS011;12992;50.884;13.668;2022-12-11T14:02:49;16.23;;;7.47;;
24961;SDS011;12992;50.884;13.668;2022-12-11T14:05:17;14.48;;;7.15;;
24961;SDS011;12992;50.884;13.668;2022-12-11T14:07:50;13.60;;;7.65;;
24961;SDS011;12992;50.884;13.668;2022-12-11T14:10:20;14.10;;;8.02;;
24961;SDS011;12992;50.884;13.668;2022-12-11T14:15:20;14.48;;;8.00;;
24961;SDS011;12992;50.884;13.668;2022-12-11T14:17:46;16.85;;;8.73;;
24961;SDS011;12992;50.884;13.668;2022-12-11T14:20:22;16.05;;;8.50;;
24961;SDS011;12992;50.884;13.668;2022-12-11T14:22:51;15.82;;;8.48;;
24961;SDS011;12992;50.884;13.668;2022-12-11T14:25:29;14.88;;;7.97;;
24961;SDS011;12992;50.884;13.668;2022-12-11T14:27:54;16.00;;;8.30;;
24961;SDS011;12992;50.884;13.668;2022-12-11T14:30:27;17.50;;;8.57;;
24961;SDS011;12992;50.884;13.668;2022-12-11T14:32:59;17.45;;;8.70;;
24961;SDS011;12992;50.884;13.668;2022-12-11T14:35:29;16.88;;;9.13;;
24961;SDS011;12992;50.884;13.668;2022-12-11T14:37:57;16.17;;;8.10;;
24961;SDS011;12992;50.884;13.668;2022-12-11T14:40:29;17.77;;;9.40;;
24961;SDS011;12992;50.884;13.668;2022-12-11T14:43:00;16.30;;;8.38;;
24961;SDS011;12992;50.884;13.668;2022-12-11T14:45:37;17.00;;;8.80;;
24961;SDS011;12992;50.884;13.668;2022-12-11T14:48:12;16.55;;;8.15;;
24961;SDS011;12992;50.884;13.668;2022-12-11T14:50:51;23.42;;;9.90;;
24961;SDS011;12992;50.884;13.668;2022-12-11T14:53:25;19.95;;;9.25;;
24961;SDS011;12992;50.884;13.668;2022-12-11T14:58:24;15.32;;;8.38;;
24961;SDS011;12992;50.884;13.668;2022-12-11T15:00:58;16.02;;;8.70;;
24961;SDS011;12992;50.884;13.668;2022-12-11T15:03:33;15.82;;;8.77;;
24961;SDS011;12992;50.884;13.668;2022-12-11T15:06:00;15.68;;;8.10;;
24961;SDS011;12992;50.884;13.668;2022-12-11T15:08:29;19.40;;;8.30;;
24961;SDS011;12992;50.884;13.668;2022-12-11T15:13:25;18.35;;;7.53;;
24961;SDS011;12992;50.884;13.668;2022-12-11T15:15:51;15.00;;;8.48;;
24961;SDS011;12992;50.884;13.668;2022-12-11T15:18:26;15.73;;;8.40;;
24961;SDS011;12992;50.884;13.668;2022-12-11T15:21:02;17.83;;;8.48;;
24961;SDS011;12992;50.884;13.668;2022-12-11T15:23:31;19.52;;;9.18;;
24961;SDS011;12992;50.884;13.668;2022-12-11T15:28:38;16.25;;;9.50;;
24961;SDS011;12992;50.884;13.668;2022-12-11T15:31:05;20.55;;;9.60;;
24961;SDS011;12992;50.884;13.668;2022-12-11T15:33:46;19.48;;;9.98;;
24961;SDS011;12992;50.884;13.668;2022-12-11T15:36:25;24.08;;;10.40;;
24961;SDS011;12992;50.884;13.668;2022-12-11T15:38:56;20.33;;;9.48;;
24961;SDS011;12992;50.884;13.668;2022-12-11T15:41:22;17.65;;;9.30;;
24961;SDS011;12992;50.884;13.668;2022-12-11T15:43:49;19.42;;;9.73;;
24961;SDS011;12992;50.884;13.668;2022-12-11T15:46:16;18.95;;;9.38;;
24961;SDS011;12992;50.884;13.668;2022-12-11T15:48:42;19.92;;;9.80;;
24961;SDS011;12992;50.884;13.668;2022-12-11T15:51:08;19.52;;;9.85;;
24961;SDS011;12992;50.884;13.668;2022-12-11T15:53:34;19.20;;;9.32;;
24961;SDS011;12992;50.884;13.668;2022-12-11T15:55:59;19.45;;;9.23;;
24961;SDS011;12992;50.884;13.668;2022-12-11T15:58:25;18.65;;;9.25;;